sensor_id;sensor_type;location;lat;lon;timestamp;P1;durP1;ratioP1;P2;durP2;ratioP2
39698;SDS011;25372;50.582;12.250;2022-10-20T00:10:17;3.28;;;1.70;;
39698;SDS011;25372;50.582;12.250;2022-10-20T00:20:38;2.67;;;2.10;;
39698;SDS011;25372;50.582;12.250;2022-10-20T00:31:00;3.10;;;2.10;;
39698;SDS011;25372;50.582;12.250;2022-10-20T00:41:22;6.70;;;3.28;;
39698;SDS011;25372;50.582;12.250;2022-10-20T00:51:44;3.20;;;1.55;;
39698;SDS011;25372;50.582;12.250;2022-10-20T01:02:05;1.05;;;0.98;;
39698;SDS011;25372;50.582;12.250;2022-10-20T01:12:33;2.75;;;1.25;;
39698;SDS011;25372;50.582;12.250;2022-10-20T01:23:03;2.53;;;1.38;;
39698;SDS011;25372;50.582;12.250;2022-10-20T01:33:41;1.83;;;1.20;;
39698;SDS011;25372;50.582;12.250;2022-10-20T01:44:10;0.63;;;0.63;;
39698;SDS011;25372;50.582;12.250;2022-10-20T01:54:35;0.98;;;0.82;;
39698;SDS011;25372;50.582;12.250;2022-10-20T02:05:00;2.88;;;0.68;;
39698;SDS011;25372;50.582;12.250;2022-10-20T02:15:33;1.08;;;0.80;;
39698;SDS011;25372;50.582;12.250;2022-10-20T02:25:58;0.55;;;0.55;;
39698;SDS011;25372;50.582;12.250;2022-10-20T02:36:26;1.08;;;1.08;;
39698;SDS011;25372;50.582;12.250;2022-10-20T02:46:48;3.50;;;1.63;;
39698;SDS011;25372;50.582;12.250;2022-10-20T02:57:11;4.13;;;2.25;;
39698;SDS011;25372;50.582;12.250;2022-10-20T03:07:32;4.10;;;1.77;;
39698;SDS011;25372;50.582;12.250;2022-10-20T03:17:54;2.67;;;1.65;;
39698;SDS011;25372;50.582;12.250;2022-10-20T03:28:15;1.77;;;1.67;;
39698;SDS011;25372;50.582;12.250;2022-10-20T03:38:38;2.05;;;1.70;;
39698;SDS011;25372;50.582;12.250;2022-10-20T03:49:00;2.63;;;1.90;;
39698;SDS011;25372;50.582;12.250;2022-10-20T03:59:22;2.58;;;2.38;;
39698;SDS011;25372;50.582;12.250;2022-10-20T04:09:43;2.17;;;1.15;;
39698;SDS011;25372;50.582;12.250;2022-10-20T04:20:06;1.85;;;1.73;;
39698;SDS011;25372;50.582;12.250;2022-10-20T04:30:27;1.27;;;1.15;;
39698;SDS011;25372;50.582;12.250;2022-10-20T04:40:53;2.60;;;1.65;;
39698;SDS011;25372;50.582;12.250;2022-10-20T04:51:15;2.10;;;1.73;;
39698;SDS011;25372;50.582;12.250;2022-10-20T05:01:37;3.92;;;2.35;;
39698;SDS011;25372;50.582;12.250;2022-10-20T05:11:58;7.03;;;1.88;;
39698;SDS011;25372;50.582;12.250;2022-10-20T05:22:20;3.63;;;3.15;;
39698;SDS011;25372;50.582;12.250;2022-10-20T05:32:41;1.33;;;1.17;;
39698;SDS011;25372;50.582;12.250;2022-10-20T05:43:03;4.40;;;2.63;;
39698;SDS011;25372;50.582;12.250;2022-10-20T05:53:24;5.18;;;2.95;;
39698;SDS011;25372;50.582;12.250;2022-10-20T06:03:47;4.00;;;2.08;;
39698;SDS011;25372;50.582;12.250;2022-10-20T06:14:08;1.35;;;1.30;;
39698;SDS011;25372;50.582;12.250;2022-10-20T06:24:31;5.35;;;2.10;;
39698;SDS011;25372;50.582;12.250;2022-10-20T06:34:52;5.07;;;3.25;;
39698;SDS011;25372;50.582;12.250;2022-10-20T06:45:15;3.58;;;2.67;;
39698;SDS011;25372;50.582;12.250;2022-10-20T06:55:36;4.43;;;2.38;;
39698;SDS011;25372;50.582;12.250;2022-10-20T07:05:58;4.07;;;2.90;;
39698;SDS011;25372;50.582;12.250;2022-10-20T07:16:20;5.68;;;2.97;;
39698;SDS011;25372;50.582;12.250;2022-10-20T07:26:43;5.03;;;2.70;;
39698;SDS011;25372;50.582;12.250;2022-10-20T07:37:04;4.38;;;3.05;;
39698;SDS011;25372;50.582;12.250;2022-10-20T07:47:27;3.40;;;2.00;;
39698;SDS011;25372;50.582;12.250;2022-10-20T07:57:47;4.65;;;3.47;;
39698;SDS011;25372;50.582;12.250;2022-10-20T08:08:10;4.75;;;2.88;;
39698;SDS011;25372;50.582;12.250;2022-10-20T08:18:30;3.85;;;2.00;;
39698;SDS011;25372;50.582;12.250;2022-10-20T08:28:53;2.72;;;1.90;;
39698;SDS011;25372;50.582;12.250;2022-10-20T08:39:14;2.70;;;2.03;;
39698;SDS011;25372;50.582;12.250;2022-10-20T08:49:37;2.90;;;1.48;;
39698;SDS011;25372;50.582;12.250;2022-10-20T09:00:16;1.67;;;1.58;;
39698;SDS011;25372;50.582;12.250;2022-10-20T09:10:40;2.53;;;1.55;;
39698;SDS011;25372;50.582;12.250;2022-10-20T09:21:06;2.58;;;1.15;;
39698;SDS011;25372;50.582;12.250;2022-10-20T09:31:33;0.68;;;0.68;;
39698;SDS011;25372;50.582;12.250;2022-10-20T09:42:01;0.90;;;0.90;;
39698;SDS011;25372;50.582;12.250;2022-10-20T09:52:26;2.05;;;1.17;;
39698;SDS011;25372;50.582;12.250;2022-10-20T10:13:42;1.83;;;0.98;;
39698;SDS011;25372;50.582;12.250;2022-10-20T10:24:05;1.23;;;1.08;;
39698;SDS011;25372;50.582;12.250;2022-10-20T10:45:31;1.23;;;0.80;;
39698;SDS011;25372;50.582;12.250;2022-10-20T10:56:04;2.75;;;1.30;;
39698;SDS011;25372;50.582;12.250;2022-10-20T11:06:35;1.58;;;1.33;;
39698;SDS011;25372;50.582;12.250;2022-10-20T11:17:09;4.82;;;1.30;;
39698;SDS011;25372;50.582;12.250;2022-10-20T11:27:42;0.65;;;0.65;;
39698;SDS011;25372;50.582;12.250;2022-10-20T11:38:14;0.60;;;0.60;;
39698;SDS011;25372;50.582;12.250;2022-10-20T11:48:39;2.63;;;0.73;;
39698;SDS011;25372;50.582;12.250;2022-10-20T11:59:17;1.65;;;0.85;;
39698;SDS011;25372;50.582;12.250;2022-10-20T12:09:56;3.67;;;0.90;;
39698;SDS011;25372;50.582;12.250;2022-10-20T12:31:22;3.42;;;1.25;;
39698;SDS011;25372;50.582;12.250;2022-10-20T12:41:52;1.90;;;0.75;;
39698;SDS011;25372;50.582;12.250;2022-10-20T12:52:16;1.85;;;1.05;;
39698;SDS011;25372;50.582;12.250;2022-10-20T13:02:45;0.98;;;0.93;;
39698;SDS011;25372;50.582;12.250;2022-10-20T13:24:09;0.80;;;0.80;;
39698;SDS011;25372;50.582;12.250;2022-10-20T13:34:36;2.33;;;1.40;;
39698;SDS011;25372;50.582;12.250;2022-10-20T13:45:06;2.08;;;1.58;;
39698;SDS011;25372;50.582;12.250;2022-10-20T13:55:51;3.95;;;1.92;;
39698;SDS011;25372;50.582;12.250;2022-10-20T14:06:29;3.63;;;1.90;;
39698;SDS011;25372;50.582;12.250;2022-10-20T14:16:54;3.03;;;2.30;;
39698;SDS011;25372;50.582;12.250;2022-10-20T14:27:20;6.63;;;2.38;;
39698;SDS011;25372;50.582;12.250;2022-10-20T14:37:44;2.40;;;1.70;;
39698;SDS011;25372;50.582;12.250;2022-10-20T14:48:13;4.82;;;2.92;;
39698;SDS011;25372;50.582;12.250;2022-10-20T14:58:37;4.82;;;2.88;;
39698;SDS011;25372;50.582;12.250;2022-10-20T15:09:17;7.03;;;2.60;;
39698;SDS011;25372;50.582;12.250;2022-10-20T15:19:43;3.65;;;2.70;;
39698;SDS011;25372;50.582;12.250;2022-10-20T15:30:14;4.15;;;2.53;;
39698;SDS011;25372;50.582;12.250;2022-10-20T15:40:35;4.45;;;2.42;;
39698;SDS011;25372;50.582;12.250;2022-10-20T15:50:58;2.75;;;2.45;;
39698;SDS011;25372;50.582;12.250;2022-10-20T16:01:19;4.50;;;2.83;;
39698;SDS011;25372;50.582;12.250;2022-10-20T16:11:42;3.33;;;2.25;;
39698;SDS011;25372;50.582;12.250;2022-10-20T16:22:03;5.47;;;3.38;;
39698;SDS011;25372;50.582;12.250;2022-10-20T16:32:26;6.28;;;2.53;;
39698;SDS011;25372;50.582;12.250;2022-10-20T16:42:48;3.70;;;2.58;;
39698;SDS011;25372;50.582;12.250;2022-10-20T16:53:10;11.07;;;3.55;;
39698;SDS011;25372;50.582;12.250;2022-10-20T17:03:31;4.20;;;2.95;;
39698;SDS011;25372;50.582;12.250;2022-10-20T17:13:54;5.03;;;3.28;;
39698;SDS011;25372;50.582;12.250;2022-10-20T17:24:16;4.32;;;2.25;;
39698;SDS011;25372;50.582;12.250;2022-10-20T17:34:39;5.53;;;3.47;;
39698;SDS011;25372;50.582;12.250;2022-10-20T17:45:00;5.22;;;2.67;;
39698;SDS011;25372;50.582;12.250;2022-10-20T17:55:23;7.00;;;3.70;;
39698;SDS011;25372;50.582;12.250;2022-10-20T18:05:44;4.85;;;2.65;;
39698;SDS011;25372;50.582;12.250;2022-10-20T18:16:08;2.83;;;1.75;;
39698;SDS011;25372;50.582;12.250;2022-10-20T18:26:30;3.33;;;1.93;;
39698;SDS011;25372;50.582;12.250;2022-10-20T18:36:53;5.15;;;2.92;;
39698;SDS011;25372;50.582;12.250;2022-10-20T18:47:14;5.15;;;2.58;;
39698;SDS011;25372;50.582;12.250;2022-10-20T18:57:37;5.28;;;2.08;;
39698;SDS011;25372;50.582;12.250;2022-10-20T19:07:57;4.18;;;1.80;;
39698;SDS011;25372;50.582;12.250;2022-10-20T19:18:20;4.28;;;2.17;;
39698;SDS011;25372;50.582;12.250;2022-10-20T19:28:42;2.58;;;1.67;;
39698;SDS011;25372;50.582;12.250;2022-10-20T19:39:06;2.78;;;1.77;;
39698;SDS011;25372;50.582;12.250;2022-10-20T19:49:29;3.33;;;1.63;;
39698;SDS011;25372;50.582;12.250;2022-10-20T19:59:51;2.88;;;1.45;;
39698;SDS011;25372;50.582;12.250;2022-10-20T20:10:12;2.08;;;1.30;;
39698;SDS011;25372;50.582;12.250;2022-10-20T20:20:37;2.72;;;1.45;;
39698;SDS011;25372;50.582;12.250;2022-10-20T20:30:59;3.38;;;1.67;;
39698;SDS011;25372;50.582;12.250;2022-10-20T20:41:22;3.15;;;1.52;;
39698;SDS011;25372;50.582;12.250;2022-10-20T20:51:44;3.42;;;1.83;;
39698;SDS011;25372;50.582;12.250;2022-10-20T21:02:08;2.30;;;1.38;;
39698;SDS011;25372;50.582;12.250;2022-10-20T21:12:29;2.03;;;1.83;;
39698;SDS011;25372;50.582;12.250;2022-10-20T21:22:52;2.30;;;1.65;;
39698;SDS011;25372;50.582;12.250;2022-10-20T21:33:12;6.10;;;1.88;;
39698;SDS011;25372;50.582;12.250;2022-10-20T21:43:35;3.30;;;1.55;;
39698;SDS011;25372;50.582;12.250;2022-10-20T21:54:00;4.05;;;2.20;;
39698;SDS011;25372;50.582;12.250;2022-10-20T22:04:24;3.15;;;1.90;;
39698;SDS011;25372;50.582;12.250;2022-10-20T22:14:47;3.10;;;1.83;;
39698;SDS011;25372;50.582;12.250;2022-10-20T22:25:09;3.28;;;1.98;;
39698;SDS011;25372;50.582;12.250;2022-10-20T22:35:30;2.47;;;1.85;;
39698;SDS011;25372;50.582;12.250;2022-10-20T22:45:52;5.70;;;2.65;;
39698;SDS011;25372;50.582;12.250;2022-10-20T22:56:15;6.38;;;2.15;;
39698;SDS011;25372;50.582;12.250;2022-10-20T23:06:39;7.65;;;2.30;;
39698;SDS011;25372;50.582;12.250;2022-10-20T23:17:01;5.10;;;2.42;;
39698;SDS011;25372;50.582;12.250;2022-10-20T23:27:23;4.35;;;2.13;;
39698;SDS011;25372;50.582;12.250;2022-10-20T23:37:44;4.13;;;2.17;;
39698;SDS011;25372;50.582;12.250;2022-10-20T23:48:06;2.63;;;1.90;;
39698;SDS011;25372;50.582;12.250;2022-10-20T23:58:27;2.83;;;1.88;;
